createdAt,value
2023-06-19T00:00:58.805Z,13.30
2023-06-19T00:02:31.397Z,13.37
2023-06-19T00:04:06.430Z,12.90
2023-06-19T00:05:38.901Z,12.93
2023-06-19T00:07:12.330Z,12.93
2023-06-19T00:08:44.812Z,12.97
2023-06-19T00:10:18.236Z,13.00
2023-06-19T00:11:51.691Z,12.17
2023-06-19T00:13:25.127Z,12.57
2023-06-19T00:14:57.616Z,13.40
2023-06-19T00:16:31.055Z,13.40
2023-06-19T00:18:05.458Z,12.97
2023-06-19T00:19:39.264Z,13.90
2023-06-19T00:21:12.744Z,13.17
2023-06-19T00:22:46.275Z,13.50
2023-06-19T00:24:19.859Z,13.33
2023-06-19T00:25:53.345Z,13.10
2023-06-19T00:27:27.469Z,13.73
2023-06-19T00:29:01.515Z,12.70
2023-06-19T00:30:35.904Z,13.40
2023-06-19T00:32:09.688Z,13.93
2023-06-19T00:33:43.149Z,13.80
2023-06-19T00:35:19.085Z,14.47
2023-06-19T00:36:57.502Z,13.63
2023-06-19T00:38:31.032Z,13.10
2023-06-19T00:40:04.505Z,14.07
2023-06-19T00:41:37.412Z,14.07
2023-06-19T00:43:11.345Z,14.30
2023-06-19T00:44:44.633Z,14.80
2023-06-19T00:46:18.157Z,13.77
2023-06-19T00:47:50.882Z,13.93
2023-06-19T00:49:24.477Z,14.07
2023-06-19T00:50:59.619Z,14.53
2023-06-19T00:52:33.091Z,13.97
2023-06-19T00:54:07.365Z,13.93
2023-06-19T00:55:41.026Z,14.30
2023-06-19T00:57:14.989Z,14.50
2023-06-19T00:58:48.455Z,13.63
2023-06-19T01:00:21.073Z,14.47
2023-06-19T01:01:54.704Z,14.10
2023-06-19T01:03:27.522Z,13.57
2023-06-19T01:05:01.116Z,13.60
2023-06-19T01:06:46.761Z,14.00
2023-06-19T01:08:26.641Z,13.77
2023-06-19T01:10:05.086Z,13.67
2023-06-19T01:11:43.129Z,14.83
2023-06-19T01:13:19.962Z,13.47
2023-06-19T01:14:56.152Z,14.43
2023-06-19T01:16:31.250Z,13.73
2023-06-19T01:18:05.062Z,14.40
2023-06-19T01:19:38.592Z,14.50
2023-06-19T01:21:12.057Z,15.27
2023-06-19T01:22:46.854Z,14.67
2023-06-19T01:24:20.547Z,14.60
2023-06-19T01:25:53.090Z,14.47
2023-06-19T01:27:30.779Z,14.43
2023-06-19T01:29:05.204Z,13.30
2023-06-19T01:30:40.137Z,14.43
2023-06-19T01:32:16.293Z,13.77
2023-06-19T01:33:50.376Z,14.10
2023-06-19T01:35:26.133Z,14.27
2023-06-19T01:36:59.949Z,13.47
2023-06-19T01:38:33.865Z,14.67
2023-06-19T01:40:11.763Z,14.77
2023-06-19T01:41:45.325Z,14.90
2023-06-19T01:43:19.254Z,15.00
2023-06-19T01:44:52.733Z,14.47
2023-06-19T01:46:26.284Z,15.57
2023-06-19T01:47:59.991Z,15.33
2023-06-19T01:49:33.672Z,15.07
2023-06-19T01:51:07.327Z,15.63
2023-06-19T01:52:40.996Z,14.83
2023-06-19T01:54:15.761Z,16.97
2023-06-19T01:55:49.353Z,15.57
2023-06-19T01:57:23.140Z,14.83
2023-06-19T01:58:56.660Z,16.07
2023-06-19T02:00:31.605Z,15.60
2023-06-19T02:02:05.202Z,15.77
2023-06-19T02:03:38.716Z,15.40
2023-06-19T02:05:12.432Z,16.03
2023-06-19T02:06:46.015Z,15.33
2023-06-19T02:08:18.437Z,15.37
2023-06-19T02:09:53.237Z,16.07
2023-06-19T02:11:26.662Z,14.77
2023-06-19T02:13:01.838Z,15.97
2023-06-19T02:14:35.302Z,15.80
2023-06-19T02:16:08.806Z,16.27
2023-06-19T02:17:43.562Z,15.93
2023-06-19T02:19:17.054Z,16.47
2023-06-19T02:20:50.603Z,15.90
2023-06-19T02:22:23.087Z,15.83
2023-06-19T02:23:56.572Z,16.37
2023-06-19T02:25:30.413Z,14.87
2023-06-19T02:27:03.977Z,15.10
2023-06-19T02:28:37.426Z,15.50
2023-06-19T02:30:10.513Z,15.43
2023-06-19T02:31:44.301Z,15.93
2023-06-19T02:33:16.716Z,18.10
2023-06-19T02:34:50.152Z,15.97
2023-06-19T02:36:22.595Z,16.20
2023-06-19T02:37:56.055Z,16.30
2023-06-19T02:39:29.839Z,16.10
2023-06-19T02:41:03.735Z,15.37
2023-06-19T02:42:37.253Z,15.67
2023-06-19T02:44:10.718Z,15.57
2023-06-19T02:45:44.296Z,15.37
2023-06-19T02:47:16.816Z,17.67
2023-06-19T02:48:50.206Z,16.57
2023-06-19T02:50:23.022Z,17.13
2023-06-19T02:51:56.716Z,15.73
2023-06-19T02:53:30.145Z,16.47
2023-06-19T02:55:03.617Z,16.30
2023-06-19T02:56:38.402Z,17.47
2023-06-19T02:58:11.771Z,17.13
2023-06-19T02:59:46.613Z,16.20
2023-06-19T03:01:22.040Z,16.43
2023-06-19T03:02:54.872Z,16.97
2023-06-19T03:04:29.575Z,16.97
2023-06-19T03:06:03.263Z,17.17
2023-06-19T03:07:35.725Z,16.13
2023-06-19T03:09:13.563Z,15.60
2023-06-19T03:10:47.069Z,15.83
2023-06-19T03:12:20.894Z,17.00
2023-06-19T03:13:54.966Z,15.93
2023-06-19T03:15:27.617Z,15.57
2023-06-19T03:17:01.421Z,16.90
2023-06-19T03:18:35.491Z,15.53
2023-06-19T03:20:12.917Z,15.83
2023-06-19T03:21:50.681Z,16.80
2023-06-19T03:23:23.371Z,15.67
2023-06-19T03:24:57.046Z,16.07
2023-06-19T03:26:29.695Z,15.87
2023-06-19T03:28:08.307Z,15.77
2023-06-19T03:29:42.293Z,15.50
2023-06-19T03:31:18.295Z,15.87
2023-06-19T03:32:51.832Z,15.80
2023-06-19T03:34:44.909Z,16.43
2023-06-19T03:36:18.902Z,15.77
2023-06-19T03:37:56.664Z,14.93
2023-06-19T03:39:30.060Z,14.97
2023-06-19T03:41:10.237Z,15.37
2023-06-19T03:42:44.578Z,14.60
2023-06-19T03:44:20.614Z,14.57
2023-06-19T03:45:54.119Z,15.27
2023-06-19T03:47:27.910Z,14.73
2023-06-19T03:49:01.419Z,14.13
2023-06-19T03:50:34.785Z,15.00
2023-06-19T03:52:08.708Z,14.47
2023-06-19T03:53:41.862Z,15.07
2023-06-19T03:55:15.340Z,14.93
2023-06-19T03:56:48.930Z,15.67
2023-06-19T03:58:21.491Z,15.07
2023-06-19T03:59:56.429Z,14.07
2023-06-19T04:01:30.015Z,14.50
2023-06-19T04:03:02.619Z,17.57
2023-06-19T04:04:36.526Z,14.43
2023-06-19T04:06:11.674Z,14.20
2023-06-19T04:07:46.895Z,14.37
2023-06-19T04:09:21.796Z,13.67
2023-06-19T04:10:55.435Z,14.50
2023-06-19T04:12:28.845Z,13.53
2023-06-19T04:14:02.860Z,15.23
2023-06-19T04:15:38.593Z,14.27
2023-06-19T04:17:12.332Z,15.90
2023-06-19T04:18:45.988Z,14.40
2023-06-19T04:20:19.450Z,13.40
2023-06-19T04:21:55.761Z,14.43
2023-06-19T04:23:29.513Z,13.83
2023-06-19T04:25:02.929Z,13.93
2023-06-19T04:26:36.444Z,13.90
2023-06-19T04:28:09.873Z,13.67
2023-06-19T04:29:43.393Z,13.60
2023-06-19T04:31:19.180Z,13.63
2023-06-19T04:32:54.215Z,12.50
2023-06-19T04:34:28.067Z,13.13
2023-06-19T04:36:01.619Z,13.13
2023-06-19T04:37:35.209Z,13.30
2023-06-19T04:39:08.859Z,13.00
2023-06-19T04:40:44.390Z,13.07
2023-06-19T04:42:21.498Z,12.67
2023-06-19T04:43:55.054Z,12.53
2023-06-19T04:45:28.584Z,12.70
2023-06-19T04:47:03.645Z,12.23
2023-06-19T04:48:37.751Z,12.27
2023-06-19T04:50:10.322Z,13.13
2023-06-19T04:51:43.779Z,12.57
2023-06-19T04:53:17.271Z,13.00
2023-06-19T04:54:49.711Z,12.80
2023-06-19T04:56:23.354Z,12.70
2023-06-19T04:57:57.250Z,13.17
2023-06-19T04:59:31.389Z,13.27
2023-06-19T05:01:04.908Z,12.80
2023-06-19T05:02:39.915Z,12.17
2023-06-19T05:04:13.471Z,12.97
2023-06-19T05:05:47.090Z,13.00
2023-06-19T05:07:20.598Z,12.67
2023-06-19T05:08:54.338Z,12.30
2023-06-19T05:10:27.985Z,12.83
2023-06-19T05:12:01.536Z,12.30
2023-06-19T05:13:34.970Z,16.03
2023-06-19T05:15:08.081Z,12.53
2023-06-19T05:16:41.582Z,13.20
2023-06-19T05:18:15.532Z,15.70
2023-06-19T05:19:49.032Z,12.60
2023-06-19T05:21:22.707Z,11.33
2023-06-19T05:22:56.876Z,12.43
2023-06-19T05:24:30.456Z,12.03
2023-06-19T05:26:03.873Z,13.30
2023-06-19T05:27:37.471Z,11.63
2023-06-19T05:29:12.198Z,13.80
2023-06-19T05:30:45.863Z,11.77
2023-06-19T05:32:18.310Z,11.37
2023-06-19T05:33:53.132Z,11.43
2023-06-19T05:35:26.933Z,11.83
2023-06-19T05:37:01.857Z,12.43
2023-06-19T05:38:35.372Z,12.03
2023-06-19T05:40:09.801Z,11.20
2023-06-19T05:41:43.226Z,10.73
2023-06-19T05:43:16.676Z,11.60
2023-06-19T05:44:50.112Z,11.07
2023-06-19T05:46:23.624Z,11.63
2023-06-19T05:47:57.250Z,12.30
2023-06-19T05:49:32.055Z,11.07
2023-06-19T05:51:05.560Z,12.10
2023-06-19T05:52:42.807Z,11.83
2023-06-19T05:54:16.215Z,11.60
2023-06-19T05:55:49.685Z,11.47
2023-06-19T05:57:23.349Z,12.30
2023-06-19T05:58:56.785Z,11.57
2023-06-19T06:00:31.262Z,11.60
2023-06-19T06:02:05.355Z,11.90
2023-06-19T06:03:39.106Z,11.80
2023-06-19T06:05:13.983Z,11.20
2023-06-19T06:06:47.446Z,10.37
2023-06-19T06:08:20.950Z,12.03
2023-06-19T06:09:54.377Z,11.30
2023-06-19T06:11:27.868Z,11.27
2023-06-19T06:13:03.032Z,11.50
2023-06-19T06:14:38.310Z,11.37
2023-06-19T06:16:11.789Z,11.20
2023-06-19T06:17:48.556Z,10.97
2023-06-19T06:19:23.696Z,10.97
2023-06-19T06:21:00.186Z,10.17
2023-06-19T06:22:33.598Z,10.30
2023-06-19T06:24:07.665Z,11.77
2023-06-19T06:25:41.153Z,11.50
2023-06-19T06:27:14.599Z,10.97
2023-06-19T06:28:48.067Z,10.93
2023-06-19T06:30:21.503Z,10.63
2023-06-19T06:32:05.965Z,10.73
2023-06-19T06:33:39.364Z,10.47
2023-06-19T06:35:12.842Z,11.03
2023-06-19T06:37:00.925Z,10.70
2023-06-19T06:38:39.220Z,12.67
2023-06-19T06:40:15.103Z,10.70
2023-06-19T06:41:48.588Z,11.93
2023-06-19T06:43:22.042Z,10.10
2023-06-19T06:44:55.553Z,9.87
2023-06-19T06:46:29.018Z,9.87
2023-06-19T06:48:02.589Z,10.77
2023-06-19T06:49:37.412Z,9.60
2023-06-19T06:51:11.730Z,10.77
2023-06-19T06:52:46.520Z,9.87
2023-06-19T06:54:20.028Z,10.63
2023-06-19T06:55:53.489Z,10.33
2023-06-19T06:57:26.922Z,9.57
2023-06-19T06:59:00.339Z,9.93
2023-06-19T07:00:33.959Z,10.10
2023-06-19T07:02:07.425Z,11.43
2023-06-19T07:03:40.999Z,10.50
2023-06-19T07:05:14.445Z,9.43
2023-06-19T07:06:48.071Z,10.00
2023-06-19T07:08:22.861Z,10.47
2023-06-19T07:09:56.342Z,11.23
2023-06-19T07:11:29.768Z,9.90
2023-06-19T07:13:03.265Z,10.13
2023-06-19T07:14:36.722Z,9.93
2023-06-19T07:16:10.698Z,10.63
2023-06-19T07:17:44.211Z,9.90
2023-06-19T07:19:17.737Z,8.73
2023-06-19T07:20:51.178Z,10.23
2023-06-19T07:22:24.936Z,10.50
2023-06-19T07:24:00.067Z,9.77
2023-06-19T07:25:34.905Z,11.67
2023-06-19T07:27:08.611Z,10.10
2023-06-19T07:28:43.181Z,9.47
2023-06-19T07:30:17.110Z,9.40
2023-06-19T07:31:50.684Z,9.83
2023-06-19T07:33:24.145Z,10.40
2023-06-19T07:34:57.744Z,10.00
2023-06-19T07:36:31.163Z,9.80
2023-06-19T07:38:04.604Z,9.27
2023-06-19T07:39:39.372Z,9.90
2023-06-19T07:41:12.984Z,9.70
2023-06-19T07:42:46.466Z,9.77
2023-06-19T07:44:22.029Z,10.17
2023-06-19T07:45:55.539Z,9.50
2023-06-19T07:47:29.507Z,9.60
2023-06-19T07:49:02.987Z,9.73
2023-06-19T07:50:36.413Z,9.33
2023-06-19T07:52:11.590Z,9.60
2023-06-19T07:53:45.424Z,9.00
2023-06-19T07:55:20.228Z,9.83
2023-06-19T07:56:53.694Z,9.33
2023-06-19T07:58:27.134Z,9.97
2023-06-19T08:00:00.549Z,9.40
2023-06-19T08:01:34.364Z,8.73
2023-06-19T08:03:08.401Z,9.13
2023-06-19T08:04:42.010Z,8.60
2023-06-19T08:06:15.527Z,11.07
2023-06-19T08:07:48.929Z,9.37
2023-06-19T08:09:23.066Z,8.77
2023-06-19T08:10:57.892Z,8.97
2023-06-19T08:12:31.306Z,9.73
2023-06-19T08:14:04.761Z,9.07
2023-06-19T08:15:38.202Z,9.03
2023-06-19T08:17:11.759Z,10.00
2023-06-19T08:18:45.425Z,9.63
2023-06-19T08:20:18.908Z,9.83
2023-06-19T08:21:53.199Z,9.20
2023-06-19T08:23:26.747Z,9.73
2023-06-19T08:25:00.197Z,9.00
2023-06-19T08:26:35.069Z,9.57
2023-06-19T08:28:09.653Z,9.63
2023-06-19T08:29:44.264Z,9.90
2023-06-19T08:31:18.043Z,9.83
2023-06-19T08:32:51.487Z,8.77
2023-06-19T08:34:24.969Z,9.73
2023-06-19T08:35:58.393Z,9.50
2023-06-19T08:37:32.476Z,9.33
2023-06-19T08:39:06.194Z,9.00
2023-06-19T08:40:39.764Z,8.97
2023-06-19T08:42:14.631Z,8.83
2023-06-19T08:43:48.393Z,9.47
2023-06-19T08:45:22.070Z,11.87
2023-06-19T08:46:55.605Z,9.37
2023-06-19T08:48:29.220Z,9.77
2023-06-19T08:50:03.132Z,9.53
2023-06-19T08:51:36.710Z,9.73
2023-06-19T08:53:12.333Z,9.83
2023-06-19T08:54:45.873Z,9.43
2023-06-19T08:56:19.468Z,10.93
2023-06-19T08:57:54.308Z,12.20
2023-06-19T08:59:29.637Z,9.50
2023-06-19T09:01:03.074Z,11.63
2023-06-19T09:02:39.998Z,10.90
2023-06-19T09:04:14.127Z,10.23
2023-06-19T09:05:51.861Z,10.90
2023-06-19T09:07:26.282Z,10.23
2023-06-19T09:09:03.412Z,9.93
2023-06-19T09:10:38.122Z,10.50
2023-06-19T09:12:12.438Z,10.47
2023-06-19T09:13:58.707Z,10.77
2023-06-19T09:15:33.057Z,10.07
2023-06-19T09:17:10.340Z,13.23
2023-06-19T09:18:45.771Z,9.80
2023-06-19T09:20:28.996Z,10.60
2023-06-19T09:22:02.768Z,10.07
2023-06-19T09:23:36.668Z,10.53
2023-06-19T09:25:12.774Z,10.13
2023-06-19T09:26:46.296Z,10.00
2023-06-19T09:28:20.361Z,9.73
2023-06-19T09:29:55.199Z,9.73
2023-06-19T09:31:35.100Z,10.00
2023-06-19T09:33:09.452Z,10.80
2023-06-19T09:34:43.014Z,10.57
2023-06-19T09:36:17.194Z,10.63
2023-06-19T09:37:51.906Z,10.23
2023-06-19T09:39:27.626Z,10.67
2023-06-19T09:41:03.287Z,10.57
2023-06-19T09:42:37.189Z,9.67
2023-06-19T09:44:13.617Z,10.50
2023-06-19T09:45:50.101Z,10.30
2023-06-19T09:47:25.775Z,10.93
2023-06-19T09:49:02.530Z,10.13
2023-06-19T09:50:36.225Z,10.60
2023-06-19T09:52:09.959Z,10.43
2023-06-19T09:53:43.936Z,10.63
2023-06-19T09:55:18.433Z,10.83
2023-06-19T09:56:52.402Z,10.53
2023-06-19T09:58:25.992Z,10.83
2023-06-19T10:00:02.262Z,11.27
2023-06-19T10:01:47.612Z,10.13
2023-06-19T10:03:21.198Z,10.93
2023-06-19T10:04:56.299Z,11.10
2023-06-19T10:06:31.126Z,11.27
2023-06-19T10:08:05.975Z,10.47
2023-06-19T10:09:39.461Z,10.93
2023-06-19T10:11:12.922Z,10.20
2023-06-19T10:12:46.942Z,10.80
2023-06-19T10:14:20.708Z,11.93
2023-06-19T10:15:54.136Z,11.50
2023-06-19T10:17:33.248Z,10.73
2023-06-19T10:19:14.048Z,9.43
2023-06-19T10:20:48.889Z,10.60
2023-06-19T10:22:23.750Z,10.43
2023-06-19T10:23:57.951Z,10.73
2023-06-19T10:25:32.385Z,10.70
2023-06-19T10:27:06.105Z,10.73
2023-06-19T10:28:39.704Z,10.33
2023-06-19T10:30:19.690Z,10.33
2023-06-19T10:31:53.204Z,10.37
2023-06-19T10:33:29.276Z,10.50
2023-06-19T10:35:02.728Z,10.80
2023-06-19T10:36:36.171Z,10.03
2023-06-19T10:38:09.825Z,9.90
2023-06-19T10:39:43.265Z,9.47
2023-06-19T10:41:17.938Z,10.47
2023-06-19T10:42:51.410Z,9.97
2023-06-19T10:44:27.387Z,10.77
2023-06-19T10:46:01.036Z,10.30
2023-06-19T10:47:35.098Z,9.83
2023-06-19T10:49:12.331Z,9.93
2023-06-19T10:50:45.911Z,10.63
2023-06-19T10:52:19.406Z,9.07
2023-06-19T10:53:52.841Z,9.83
2023-06-19T10:55:26.265Z,11.70
2023-06-19T10:57:04.145Z,10.53
2023-06-19T10:58:37.732Z,10.57
2023-06-19T11:00:13.983Z,10.60
2023-06-19T11:01:48.013Z,10.70
2023-06-19T11:03:22.202Z,9.90
2023-06-19T11:04:57.516Z,10.57
2023-06-19T11:06:31.195Z,9.73
2023-06-19T11:08:04.895Z,10.27
2023-06-19T11:09:37.577Z,10.17
2023-06-19T11:11:10.989Z,9.87
2023-06-19T11:12:45.954Z,10.10
2023-06-19T11:14:19.870Z,9.77
2023-06-19T11:15:53.372Z,10.17
2023-06-19T11:17:26.902Z,10.03
2023-06-19T11:19:00.406Z,10.13
2023-06-19T11:20:45.764Z,10.00
2023-06-19T11:22:19.835Z,9.73
2023-06-19T11:23:53.276Z,9.87
2023-06-19T11:25:27.403Z,10.50
2023-06-19T11:27:00.872Z,10.13
2023-06-19T11:28:34.822Z,10.90
2023-06-19T11:30:09.096Z,9.13
2023-06-19T11:31:42.556Z,8.97
2023-06-19T11:33:23.317Z,9.43
2023-06-19T11:34:57.016Z,9.60
2023-06-19T11:36:31.871Z,9.30
2023-06-19T11:38:06.627Z,9.52
2023-06-19T11:39:40.722Z,9.40
2023-06-19T11:41:14.231Z,9.27
2023-06-19T11:42:49.065Z,9.55
2023-06-19T11:44:22.732Z,8.70
2023-06-19T11:45:56.851Z,8.98
2023-06-19T11:47:32.810Z,8.98
2023-06-19T11:49:15.789Z,7.63
2023-06-19T11:50:49.257Z,8.43
2023-06-19T11:52:24.056Z,8.13
2023-06-19T11:53:58.067Z,8.67
2023-06-19T11:55:31.507Z,8.10
2023-06-19T11:57:05.016Z,8.13
2023-06-19T11:58:38.512Z,9.82
2023-06-19T12:00:18.741Z,7.60
2023-06-19T12:01:52.297Z,7.93
2023-06-19T12:03:26.000Z,8.07
2023-06-19T12:04:59.528Z,7.95
2023-06-19T12:06:33.018Z,7.38
2023-06-19T12:08:08.703Z,7.53
2023-06-19T12:09:42.627Z,7.60
2023-06-19T12:11:16.141Z,6.75
2023-06-19T12:12:49.618Z,7.35
2023-06-19T12:14:23.142Z,7.70
2023-06-19T12:15:56.571Z,7.53
2023-06-19T12:17:31.097Z,7.00
2023-06-19T12:19:04.548Z,7.90
2023-06-19T12:20:37.941Z,8.10
2023-06-19T12:22:11.414Z,8.13
2023-06-19T12:23:46.221Z,7.28
2023-06-19T12:25:19.811Z,7.50
2023-06-19T12:26:53.247Z,8.13
2023-06-19T12:28:26.724Z,7.78
2023-06-19T12:30:00.188Z,7.57
2023-06-19T12:31:34.137Z,8.00
2023-06-19T12:33:07.684Z,7.30
2023-06-19T12:34:41.691Z,7.78
2023-06-19T12:36:15.173Z,7.65
2023-06-19T12:37:48.828Z,16.35
2023-06-19T12:39:23.686Z,8.63
2023-06-19T12:40:57.108Z,7.90
2023-06-19T12:42:30.569Z,8.90
2023-06-19T12:44:04.064Z,9.13
2023-06-19T12:45:37.505Z,8.98
2023-06-19T12:47:11.236Z,9.00
2023-06-19T12:48:44.692Z,9.10
2023-06-19T12:50:18.132Z,9.80
2023-06-19T12:51:53.233Z,8.80
2023-06-19T12:53:30.024Z,9.13
2023-06-19T12:55:05.011Z,9.80
2023-06-19T12:56:38.475Z,9.43
2023-06-19T12:58:12.020Z,9.33
2023-06-19T12:59:45.537Z,9.53
2023-06-19T13:01:19.311Z,9.13
2023-06-19T13:02:53.062Z,10.27
2023-06-19T13:04:26.590Z,11.17
2023-06-19T13:06:00.079Z,8.93
2023-06-19T13:07:33.556Z,9.23
2023-06-19T13:09:08.401Z,10.27
2023-06-19T13:10:43.289Z,10.70
2023-06-19T13:12:16.710Z,10.00
2023-06-19T13:13:50.281Z,9.53
2023-06-19T13:15:23.687Z,10.03
2023-06-19T13:16:58.627Z,10.17
2023-06-19T13:18:32.079Z,10.77
2023-06-19T13:20:06.141Z,10.87
2023-06-19T13:21:39.594Z,10.90
2023-06-19T13:23:13.054Z,12.87
2023-06-19T13:24:46.589Z,10.47
2023-06-19T13:26:21.450Z,13.87
2023-06-19T13:27:54.927Z,14.73
2023-06-19T13:29:28.357Z,12.17
2023-06-19T13:31:01.849Z,10.50
2023-06-19T13:32:35.314Z,10.27
2023-06-19T13:34:08.809Z,11.93
2023-06-19T13:35:42.218Z,11.10
2023-06-19T13:37:15.770Z,10.93
2023-06-19T13:38:49.717Z,11.27
2023-06-19T13:40:23.480Z,11.87
2023-06-19T13:42:02.147Z,10.07
2023-06-19T13:43:35.669Z,13.30
2023-06-19T13:45:09.748Z,10.77
2023-06-19T13:46:43.554Z,10.27
2023-06-19T13:48:17.092Z,10.25
2023-06-19T13:49:51.023Z,10.20
2023-06-19T13:51:24.551Z,11.50
2023-06-19T13:52:57.966Z,10.55
2023-06-19T13:54:31.619Z,11.07
2023-06-19T13:56:05.233Z,10.57
2023-06-19T13:57:41.330Z,11.52
2023-06-19T13:59:14.807Z,11.27
2023-06-19T14:00:48.250Z,15.63
2023-06-19T14:02:21.832Z,11.40
2023-06-19T14:03:55.256Z,11.00
2023-06-19T14:05:28.701Z,11.35
2023-06-19T14:07:02.227Z,12.57
2023-06-19T14:08:35.838Z,13.13
2023-06-19T14:10:09.774Z,12.27
2023-06-19T14:11:45.075Z,12.23
2023-06-19T14:13:19.913Z,11.90
2023-06-19T14:14:53.905Z,10.95
2023-06-19T14:16:27.412Z,11.75
2023-06-19T14:18:01.027Z,15.43
2023-06-19T14:19:34.480Z,12.90
2023-06-19T14:21:07.929Z,12.10
2023-06-19T14:22:41.363Z,12.57
2023-06-19T14:24:14.827Z,12.23
2023-06-19T14:25:48.389Z,15.60
2023-06-19T14:27:21.864Z,13.53
2023-06-19T14:28:58.341Z,15.53
2023-06-19T14:30:31.895Z,12.93
2023-06-19T14:32:05.668Z,15.93
2023-06-19T14:33:39.145Z,12.73
2023-06-19T14:35:12.651Z,12.37
2023-06-19T14:36:46.101Z,12.17
2023-06-19T14:38:19.637Z,12.13
2023-06-19T14:39:53.047Z,27.07
2023-06-19T14:41:26.518Z,12.97
2023-06-19T14:42:59.933Z,13.33
2023-06-19T14:44:34.773Z,12.50
2023-06-19T14:46:08.220Z,13.57
2023-06-19T14:47:41.874Z,12.40
2023-06-19T14:49:15.933Z,16.40
2023-06-19T14:50:49.469Z,21.00
2023-06-19T14:52:23.158Z,13.00
2023-06-19T14:53:56.633Z,12.73
2023-06-19T14:55:30.084Z,12.63
2023-06-19T14:57:03.488Z,12.53
2023-06-19T14:58:36.914Z,12.90
2023-06-19T15:00:12.571Z,12.27
2023-06-19T15:01:46.930Z,25.50
2023-06-19T15:03:20.476Z,13.33
2023-06-19T15:05:05.903Z,13.10
2023-06-19T15:06:40.299Z,13.13
2023-06-19T15:08:13.813Z,12.73
2023-06-19T15:09:47.278Z,16.93
2023-06-19T15:11:20.790Z,12.27
2023-06-19T15:12:54.204Z,12.70
2023-06-19T15:14:27.693Z,12.10
2023-06-19T15:16:03.654Z,12.80
2023-06-19T15:17:37.225Z,12.30
2023-06-19T15:19:10.906Z,13.20
2023-06-19T15:20:44.466Z,12.27
2023-06-19T15:22:18.116Z,12.50
2023-06-19T15:23:51.559Z,13.00
2023-06-19T15:25:24.948Z,12.40
2023-06-19T15:27:00.385Z,14.68
2023-06-19T15:28:35.116Z,16.80
2023-06-19T15:30:09.197Z,13.10
2023-06-19T15:31:44.026Z,12.23
2023-06-19T15:33:19.131Z,12.95
2023-06-19T15:34:52.795Z,12.85
2023-06-19T15:36:26.864Z,12.57
2023-06-19T15:38:00.581Z,12.40
2023-06-19T15:39:34.009Z,13.10
2023-06-19T15:41:07.437Z,12.73
2023-06-19T15:42:40.941Z,13.70
2023-06-19T15:44:14.590Z,12.03
2023-06-19T15:45:48.187Z,14.03
2023-06-19T15:47:23.038Z,13.37
2023-06-19T15:48:56.460Z,12.30
2023-06-19T15:50:29.995Z,13.13
2023-06-19T15:52:03.445Z,12.47
2023-06-19T15:53:36.897Z,13.23
2023-06-19T15:55:10.623Z,14.07
2023-06-19T15:56:46.006Z,12.73
2023-06-19T15:58:19.555Z,13.23
2023-06-19T15:59:53.853Z,12.97
2023-06-19T16:01:27.535Z,12.57
2023-06-19T16:03:02.520Z,12.83
2023-06-19T16:04:36.276Z,13.00
2023-06-19T16:06:09.730Z,12.87
2023-06-19T16:07:43.200Z,18.37
2023-06-19T16:09:16.645Z,12.00
2023-06-19T16:10:50.113Z,13.30
2023-06-19T16:12:23.552Z,12.20
2023-06-19T16:13:57.117Z,12.10
2023-06-19T16:15:30.593Z,12.17
2023-06-19T16:17:07.068Z,12.83
2023-06-19T16:18:41.895Z,15.60
2023-06-19T16:20:15.379Z,13.17
2023-06-19T16:21:48.867Z,13.33
2023-06-19T16:23:22.449Z,12.93
2023-06-19T16:24:55.897Z,13.10
2023-06-19T16:26:29.382Z,13.73
2023-06-19T16:28:02.829Z,12.70
2023-06-19T16:29:36.365Z,12.90
2023-06-19T16:31:11.164Z,12.60
2023-06-19T16:32:44.800Z,14.50
2023-06-19T16:34:19.651Z,13.63
2023-06-19T16:35:53.085Z,12.40
2023-06-19T16:37:26.739Z,13.50
2023-06-19T16:39:00.196Z,13.20
2023-06-19T16:40:33.807Z,13.43
2023-06-19T16:42:08.317Z,13.53
2023-06-19T16:43:41.764Z,13.03
2023-06-19T16:45:15.250Z,13.43
2023-06-19T16:46:49.664Z,13.27
2023-06-19T16:48:23.234Z,13.20
2023-06-19T16:49:58.094Z,12.77
2023-06-19T16:51:31.622Z,13.23
2023-06-19T16:53:07.076Z,12.60
2023-06-19T16:54:40.755Z,12.73
2023-06-19T16:56:14.150Z,12.50
2023-06-19T16:57:47.904Z,13.83
2023-06-19T16:59:21.384Z,13.27
2023-06-19T17:00:55.233Z,13.30
2023-06-19T17:02:28.914Z,12.97
2023-06-19T17:04:02.582Z,13.97
2023-06-19T17:05:37.356Z,13.57
2023-06-19T17:07:10.861Z,14.33
2023-06-19T17:08:44.361Z,12.70
2023-06-19T17:10:17.962Z,13.53
2023-06-19T17:11:52.901Z,16.83
2023-06-19T17:13:26.317Z,13.50
2023-06-19T17:15:00.379Z,13.47
2023-06-19T17:16:33.928Z,12.97
2023-06-19T17:18:07.807Z,12.87
2023-06-19T17:19:40.360Z,12.83
2023-06-19T17:21:15.190Z,12.10
2023-06-19T17:22:48.692Z,13.80
2023-06-19T17:24:22.879Z,13.80
2023-06-19T17:25:56.411Z,13.43
2023-06-19T17:27:29.872Z,14.40
2023-06-19T17:29:05.489Z,12.77
2023-06-19T17:30:41.552Z,13.27
2023-06-19T17:32:15.089Z,16.37
2023-06-19T17:33:48.522Z,12.30
2023-06-19T17:35:24.326Z,12.03
2023-06-19T17:36:59.606Z,14.70
2023-06-19T17:38:33.081Z,12.40
2023-06-19T17:40:06.987Z,12.13
2023-06-19T17:41:40.416Z,10.43
2023-06-19T17:43:13.918Z,11.07
2023-06-19T17:44:47.446Z,12.07
2023-06-19T17:46:21.257Z,11.60
2023-06-19T17:47:54.740Z,10.40
2023-06-19T17:49:28.238Z,10.37
2023-06-19T17:51:01.672Z,10.40
2023-06-19T17:52:36.533Z,10.30
2023-06-19T17:54:09.985Z,10.53
2023-06-19T17:55:44.423Z,10.30
2023-06-19T17:57:18.002Z,9.73
2023-06-19T17:58:51.524Z,10.50
2023-06-19T18:00:25.228Z,11.07
2023-06-19T18:01:59.111Z,11.17
2023-06-19T18:03:32.850Z,9.83
2023-06-19T18:05:06.922Z,11.00
2023-06-19T18:06:40.401Z,10.43
2023-06-19T18:08:15.201Z,10.60
2023-06-19T18:09:48.838Z,11.17
2023-06-19T18:11:22.340Z,11.33
2023-06-19T18:12:55.801Z,10.43
2023-06-19T18:14:29.239Z,10.80
2023-06-19T18:16:11.997Z,10.73
2023-06-19T18:17:46.158Z,10.50
2023-06-19T18:19:19.670Z,10.63
2023-06-19T18:20:53.148Z,11.37
2023-06-19T18:22:26.962Z,11.57
2023-06-19T18:24:04.242Z,12.07
2023-06-19T18:25:39.023Z,11.50
2023-06-19T18:27:12.462Z,10.83
2023-06-19T18:28:45.916Z,11.63
2023-06-19T18:30:19.328Z,10.60
2023-06-19T18:31:53.057Z,11.73
2023-06-19T18:33:26.463Z,12.07
2023-06-19T18:35:00.145Z,11.70
2023-06-19T18:36:33.760Z,11.63
2023-06-19T18:38:07.289Z,12.40
2023-06-19T18:39:42.135Z,11.80
2023-06-19T18:41:15.553Z,12.20
2023-06-19T18:42:48.996Z,13.07
2023-06-19T18:44:22.432Z,12.07
2023-06-19T18:45:55.888Z,12.07
2023-06-19T18:47:29.406Z,13.37
2023-06-19T18:49:02.833Z,12.83
2023-06-19T18:50:37.150Z,11.83
2023-06-19T18:52:10.726Z,13.20
2023-06-19T18:53:44.178Z,12.20
2023-06-19T18:55:19.016Z,12.33
2023-06-19T18:56:52.504Z,12.23
2023-06-19T18:58:25.985Z,14.77
2023-06-19T18:59:59.730Z,13.30
2023-06-19T19:01:33.255Z,13.03
2023-06-19T19:03:08.570Z,13.23
2023-06-19T19:04:42.962Z,14.03
2023-06-19T19:06:18.452Z,14.53
2023-06-19T19:07:52.279Z,13.87
2023-06-19T19:09:25.695Z,14.83
2023-06-19T19:11:00.593Z,14.73
2023-06-19T19:12:34.033Z,14.50
2023-06-19T19:14:07.536Z,15.20
2023-06-19T19:15:40.938Z,14.27
2023-06-19T19:17:14.420Z,15.43
2023-06-19T19:18:48.008Z,15.53
2023-06-19T19:20:21.496Z,14.87
2023-06-19T19:21:54.924Z,15.30
2023-06-19T19:23:28.375Z,16.03
2023-06-19T19:25:01.814Z,15.73
2023-06-19T19:26:36.762Z,17.07
2023-06-19T19:28:14.840Z,15.93
2023-06-19T19:29:48.383Z,16.10
2023-06-19T19:31:21.860Z,16.63
2023-06-19T19:32:55.558Z,15.67
2023-06-19T19:34:29.805Z,17.17
2023-06-19T19:36:03.323Z,16.57
2023-06-19T19:37:36.808Z,17.23
2023-06-19T19:39:10.368Z,17.20
2023-06-19T19:40:43.792Z,18.60
2023-06-19T19:42:19.205Z,18.40
2023-06-19T19:43:52.683Z,17.43
2023-06-19T19:45:26.140Z,16.57
2023-06-19T19:46:59.589Z,17.13
2023-06-19T19:48:33.027Z,17.27
2023-06-19T19:50:06.777Z,17.37
2023-06-19T19:51:40.284Z,17.07
2023-06-19T19:53:13.737Z,17.43
2023-06-19T19:54:47.786Z,17.13
2023-06-19T19:56:21.207Z,17.53
2023-06-19T19:57:56.002Z,17.63
2023-06-19T19:59:29.459Z,18.63
2023-06-19T20:01:02.904Z,17.37
2023-06-19T20:02:36.412Z,20.27
2023-06-19T20:04:09.933Z,18.53
2023-06-19T20:05:43.470Z,17.93
2023-06-19T20:07:16.886Z,18.63
2023-06-19T20:08:50.277Z,18.73
2023-06-19T20:10:23.150Z,17.33
2023-06-19T20:12:03.026Z,18.13
2023-06-19T20:13:51.154Z,18.23
2023-06-19T20:15:24.600Z,18.13
2023-06-19T20:16:58.037Z,17.97
2023-06-19T20:18:31.464Z,19.70
2023-06-19T20:20:06.744Z,18.90
2023-06-19T20:21:40.638Z,17.53